sensor_id;sensor_type;location;lat;lon;timestamp;P1;durP1;ratioP1;P2;durP2;ratioP2
71734;SDS011;59577;52.122;5.406;2023-07-29T00:01:27;1.20;;;0.50;;
71734;SDS011;59577;52.122;5.406;2023-07-29T00:03:53;0.83;;;0.50;;
71734;SDS011;59577;52.122;5.406;2023-07-29T00:06:20;2.05;;;0.40;;
71734;SDS011;59577;52.122;5.406;2023-07-29T00:08:47;1.15;;;0.60;;
71734;SDS011;59577;52.122;5.406;2023-07-29T00:11:13;1.83;;;0.40;;
71734;SDS011;59577;52.122;5.406;2023-07-29T00:13:40;0.50;;;0.30;;
71734;SDS011;59577;52.122;5.406;2023-07-29T00:16:07;2.40;;;0.30;;
71734;SDS011;59577;52.122;5.406;2023-07-29T00:18:33;0.50;;;0.30;;
71734;SDS011;59577;52.122;5.406;2023-07-29T00:21:00;1.20;;;0.32;;
71734;SDS011;59577;52.122;5.406;2023-07-29T00:23:26;1.40;;;0.40;;
71734;SDS011;59577;52.122;5.406;2023-07-29T00:25:53;1.63;;;0.35;;
71734;SDS011;59577;52.122;5.406;2023-07-29T00:28:20;1.07;;;0.30;;
71734;SDS011;59577;52.122;5.406;2023-07-29T00:30:48;1.27;;;0.40;;
71734;SDS011;59577;52.122;5.406;2023-07-29T00:33:15;3.03;;;0.43;;
71734;SDS011;59577;52.122;5.406;2023-07-29T00:35:41;3.08;;;0.82;;
71734;SDS011;59577;52.122;5.406;2023-07-29T00:38:08;1.98;;;0.40;;
71734;SDS011;59577;52.122;5.406;2023-07-29T00:40:35;1.73;;;0.40;;
71734;SDS011;59577;52.122;5.406;2023-07-29T00:43:03;3.05;;;0.98;;
71734;SDS011;59577;52.122;5.406;2023-07-29T00:45:30;1.88;;;0.47;;
71734;SDS011;59577;52.122;5.406;2023-07-29T00:47:59;0.70;;;0.30;;
71734;SDS011;59577;52.122;5.406;2023-07-29T00:50:26;1.58;;;0.30;;
71734;SDS011;59577;52.122;5.406;2023-07-29T00:52:54;1.73;;;0.30;;
71734;SDS011;59577;52.122;5.406;2023-07-29T00:55:22;0.80;;;0.30;;
71734;SDS011;59577;52.122;5.406;2023-07-29T00:57:50;5.65;;;0.32;;
71734;SDS011;59577;52.122;5.406;2023-07-29T01:00:19;0.43;;;0.30;;
71734;SDS011;59577;52.122;5.406;2023-07-29T01:02:46;0.88;;;0.30;;
71734;SDS011;59577;52.122;5.406;2023-07-29T01:05:13;1.90;;;0.83;;
71734;SDS011;59577;52.122;5.406;2023-07-29T01:07:53;1.02;;;0.40;;
71734;SDS011;59577;52.122;5.406;2023-07-29T01:16:21;1.83;;;0.32;;
71734;SDS011;59577;52.122;5.406;2023-07-29T01:18:52;1.17;;;0.23;;
71734;SDS011;59577;52.122;5.406;2023-07-29T01:21:21;3.08;;;0.50;;
71734;SDS011;59577;52.122;5.406;2023-07-29T01:23:51;0.85;;;0.40;;
71734;SDS011;59577;52.122;5.406;2023-07-29T01:26:18;1.10;;;0.57;;
71734;SDS011;59577;52.122;5.406;2023-07-29T01:28:45;1.40;;;0.57;;
71734;SDS011;59577;52.122;5.406;2023-07-29T01:31:45;5.47;;;0.90;;
71734;SDS011;59577;52.122;5.406;2023-07-29T01:34:10;3.10;;;0.60;;
71734;SDS011;59577;52.122;5.406;2023-07-29T01:36:43;2.53;;;0.60;;
71734;SDS011;59577;52.122;5.406;2023-07-29T01:39:13;1.85;;;0.70;;
71734;SDS011;59577;52.122;5.406;2023-07-29T01:41:43;3.88;;;0.75;;
71734;SDS011;59577;52.122;5.406;2023-07-29T01:44:10;1.40;;;0.60;;
71734;SDS011;59577;52.122;5.406;2023-07-29T01:46:38;1.98;;;0.68;;
71734;SDS011;59577;52.122;5.406;2023-07-29T01:49:04;2.55;;;0.90;;
71734;SDS011;59577;52.122;5.406;2023-07-29T01:51:31;4.22;;;0.75;;
71734;SDS011;59577;52.122;5.406;2023-07-29T01:53:57;2.75;;;0.70;;
71734;SDS011;59577;52.122;5.406;2023-07-29T01:56:25;4.10;;;0.63;;
71734;SDS011;59577;52.122;5.406;2023-07-29T01:58:52;6.88;;;0.70;;
71734;SDS011;59577;52.122;5.406;2023-07-29T02:01:18;1.55;;;0.70;;
71734;SDS011;59577;52.122;5.406;2023-07-29T02:03:45;1.75;;;0.70;;
71734;SDS011;59577;52.122;5.406;2023-07-29T02:06:11;2.58;;;1.23;;
71734;SDS011;59577;52.122;5.406;2023-07-29T02:08:38;1.50;;;0.73;;
71734;SDS011;59577;52.122;5.406;2023-07-29T02:11:07;1.50;;;0.90;;
71734;SDS011;59577;52.122;5.406;2023-07-29T02:13:33;1.17;;;0.88;;
71734;SDS011;59577;52.122;5.406;2023-07-29T02:16:00;4.57;;;0.88;;
71734;SDS011;59577;52.122;5.406;2023-07-29T02:18:26;1.73;;;0.85;;
71734;SDS011;59577;52.122;5.406;2023-07-29T02:20:53;3.00;;;1.10;;
71734;SDS011;59577;52.122;5.406;2023-07-29T02:23:20;2.88;;;1.27;;
71734;SDS011;59577;52.122;5.406;2023-07-29T02:25:46;2.45;;;1.40;;
71734;SDS011;59577;52.122;5.406;2023-07-29T02:28:13;3.50;;;1.40;;
71734;SDS011;59577;52.122;5.406;2023-07-29T02:30:40;3.80;;;1.75;;
71734;SDS011;59577;52.122;5.406;2023-07-29T02:33:10;2.90;;;1.50;;
71734;SDS011;59577;52.122;5.406;2023-07-29T02:35:37;3.53;;;1.88;;
71734;SDS011;59577;52.122;5.406;2023-07-29T02:38:03;5.90;;;2.30;;
71734;SDS011;59577;52.122;5.406;2023-07-29T02:40:30;6.95;;;1.60;;
71734;SDS011;59577;52.122;5.406;2023-07-29T02:42:56;2.97;;;1.58;;
71734;SDS011;59577;52.122;5.406;2023-07-29T02:45:23;5.77;;;1.97;;
71734;SDS011;59577;52.122;5.406;2023-07-29T02:47:50;3.83;;;1.70;;
71734;SDS011;59577;52.122;5.406;2023-07-29T02:50:16;5.03;;;1.90;;
71734;SDS011;59577;52.122;5.406;2023-07-29T02:52:43;5.07;;;2.10;;
71734;SDS011;59577;52.122;5.406;2023-07-29T02:55:09;2.33;;;2.08;;
71734;SDS011;59577;52.122;5.406;2023-07-29T02:57:36;2.47;;;1.33;;
71734;SDS011;59577;52.122;5.406;2023-07-29T03:00:03;5.15;;;2.17;;
71734;SDS011;59577;52.122;5.406;2023-07-29T03:02:30;2.38;;;1.38;;
71734;SDS011;59577;52.122;5.406;2023-07-29T03:04:57;3.53;;;1.83;;
71734;SDS011;59577;52.122;5.406;2023-07-29T03:07:23;5.05;;;2.33;;
71734;SDS011;59577;52.122;5.406;2023-07-29T03:09:49;2.93;;;1.70;;
71734;SDS011;59577;52.122;5.406;2023-07-29T03:12:16;6.25;;;2.20;;
71734;SDS011;59577;52.122;5.406;2023-07-29T03:14:42;4.35;;;1.70;;
71734;SDS011;59577;52.122;5.406;2023-07-29T03:17:12;3.65;;;2.40;;
71734;SDS011;59577;52.122;5.406;2023-07-29T03:19:42;4.60;;;1.73;;
71734;SDS011;59577;52.122;5.406;2023-07-29T03:22:08;3.87;;;1.83;;
71734;SDS011;59577;52.122;5.406;2023-07-29T03:24:35;3.53;;;1.83;;
71734;SDS011;59577;52.122;5.406;2023-07-29T03:27:02;4.35;;;1.90;;
71734;SDS011;59577;52.122;5.406;2023-07-29T03:29:28;2.47;;;1.88;;
71734;SDS011;59577;52.122;5.406;2023-07-29T03:31:55;4.30;;;2.00;;
71734;SDS011;59577;52.122;5.406;2023-07-29T03:34:21;3.83;;;1.80;;
71734;SDS011;59577;52.122;5.406;2023-07-29T03:36:48;2.05;;;1.60;;
71734;SDS011;59577;52.122;5.406;2023-07-29T03:39:14;4.05;;;1.50;;
71734;SDS011;59577;52.122;5.406;2023-07-29T03:41:41;2.45;;;1.65;;
71734;SDS011;59577;52.122;5.406;2023-07-29T03:44:08;3.40;;;2.00;;
71734;SDS011;59577;52.122;5.406;2023-07-29T03:46:34;5.27;;;1.97;;
71734;SDS011;59577;52.122;5.406;2023-07-29T03:49:03;2.70;;;2.08;;
71734;SDS011;59577;52.122;5.406;2023-07-29T03:51:29;4.70;;;2.13;;
71734;SDS011;59577;52.122;5.406;2023-07-29T03:53:56;7.53;;;2.03;;
71734;SDS011;59577;52.122;5.406;2023-07-29T03:56:22;4.85;;;2.30;;
71734;SDS011;59577;52.122;5.406;2023-07-29T03:58:49;4.63;;;2.03;;
71734;SDS011;59577;52.122;5.406;2023-07-29T04:01:16;3.25;;;1.95;;
71734;SDS011;59577;52.122;5.406;2023-07-29T04:03:42;4.65;;;2.10;;
71734;SDS011;59577;52.122;5.406;2023-07-29T04:06:09;4.60;;;1.95;;
71734;SDS011;59577;52.122;5.406;2023-07-29T04:08:35;3.97;;;2.55;;
71734;SDS011;59577;52.122;5.406;2023-07-29T04:11:02;3.10;;;1.63;;
71734;SDS011;59577;52.122;5.406;2023-07-29T04:13:28;3.15;;;1.20;;
71734;SDS011;59577;52.122;5.406;2023-07-29T04:15:55;2.45;;;1.38;;
71734;SDS011;59577;52.122;5.406;2023-07-29T04:18:22;3.22;;;1.65;;
71734;SDS011;59577;52.122;5.406;2023-07-29T04:20:48;3.30;;;1.30;;
71734;SDS011;59577;52.122;5.406;2023-07-29T04:23:15;2.43;;;0.87;;
71734;SDS011;59577;52.122;5.406;2023-07-29T04:25:41;2.17;;;1.20;;
71734;SDS011;59577;52.122;5.406;2023-07-29T04:28:08;2.83;;;1.40;;
71734;SDS011;59577;52.122;5.406;2023-07-29T04:30:34;1.73;;;0.95;;
71734;SDS011;59577;52.122;5.406;2023-07-29T04:33:01;2.60;;;1.25;;
71734;SDS011;59577;52.122;5.406;2023-07-29T04:35:28;2.60;;;0.83;;
71734;SDS011;59577;52.122;5.406;2023-07-29T04:37:54;2.40;;;1.15;;
71734;SDS011;59577;52.122;5.406;2023-07-29T04:40:21;4.22;;;1.15;;
71734;SDS011;59577;52.122;5.406;2023-07-29T04:42:49;1.38;;;0.70;;
71734;SDS011;59577;52.122;5.406;2023-07-29T04:45:17;1.80;;;0.90;;
71734;SDS011;59577;52.122;5.406;2023-07-29T04:47:43;1.40;;;0.80;;
71734;SDS011;59577;52.122;5.406;2023-07-29T04:50:10;3.83;;;1.05;;
71734;SDS011;59577;52.122;5.406;2023-07-29T04:52:37;3.47;;;1.00;;
71734;SDS011;59577;52.122;5.406;2023-07-29T04:55:03;2.22;;;1.08;;
71734;SDS011;59577;52.122;5.406;2023-07-29T04:57:30;4.00;;;1.35;;
71734;SDS011;59577;52.122;5.406;2023-07-29T04:59:57;4.07;;;1.10;;
71734;SDS011;59577;52.122;5.406;2023-07-29T05:02:23;3.40;;;0.80;;
71734;SDS011;59577;52.122;5.406;2023-07-29T05:04:50;3.50;;;1.00;;
71734;SDS011;59577;52.122;5.406;2023-07-29T05:07:16;4.93;;;1.15;;
71734;SDS011;59577;52.122;5.406;2023-07-29T05:09:43;1.75;;;0.85;;
71734;SDS011;59577;52.122;5.406;2023-07-29T05:12:09;2.80;;;0.97;;
71734;SDS011;59577;52.122;5.406;2023-07-29T05:14:36;1.95;;;1.00;;
71734;SDS011;59577;52.122;5.406;2023-07-29T05:17:02;1.85;;;0.68;;
71734;SDS011;59577;52.122;5.406;2023-07-29T05:19:29;2.72;;;0.70;;
71734;SDS011;59577;52.122;5.406;2023-07-29T05:21:56;2.33;;;1.08;;
71734;SDS011;59577;52.122;5.406;2023-07-29T05:24:23;4.07;;;1.00;;
71734;SDS011;59577;52.122;5.406;2023-07-29T05:26:50;4.38;;;0.80;;
71734;SDS011;59577;52.122;5.406;2023-07-29T05:29:16;1.10;;;0.82;;
71734;SDS011;59577;52.122;5.406;2023-07-29T05:31:43;2.95;;;1.17;;
71734;SDS011;59577;52.122;5.406;2023-07-29T05:34:09;3.80;;;1.02;;
71734;SDS011;59577;52.122;5.406;2023-07-29T05:36:36;3.13;;;1.00;;
71734;SDS011;59577;52.122;5.406;2023-07-29T05:39:03;4.40;;;1.25;;
71734;SDS011;59577;52.122;5.406;2023-07-29T05:41:30;3.75;;;1.20;;
71734;SDS011;59577;52.122;5.406;2023-07-29T05:43:56;2.00;;;0.93;;
71734;SDS011;59577;52.122;5.406;2023-07-29T05:46:22;3.15;;;1.55;;
71734;SDS011;59577;52.122;5.406;2023-07-29T05:48:49;2.57;;;1.17;;
71734;SDS011;59577;52.122;5.406;2023-07-29T05:51:16;3.15;;;1.17;;
71734;SDS011;59577;52.122;5.406;2023-07-29T05:53:42;2.95;;;1.10;;
71734;SDS011;59577;52.122;5.406;2023-07-29T05:56:09;3.20;;;1.50;;
71734;SDS011;59577;52.122;5.406;2023-07-29T05:58:36;5.38;;;1.25;;
71734;SDS011;59577;52.122;5.406;2023-07-29T06:01:03;3.67;;;1.27;;
71734;SDS011;59577;52.122;5.406;2023-07-29T06:03:29;2.20;;;1.25;;
71734;SDS011;59577;52.122;5.406;2023-07-29T06:05:56;2.63;;;1.50;;
71734;SDS011;59577;52.122;5.406;2023-07-29T06:08:23;2.55;;;1.23;;
71734;SDS011;59577;52.122;5.406;2023-07-29T06:10:49;2.58;;;1.17;;
71734;SDS011;59577;52.122;5.406;2023-07-29T06:13:16;2.70;;;1.30;;
71734;SDS011;59577;52.122;5.406;2023-07-29T06:15:43;3.05;;;1.40;;
71734;SDS011;59577;52.122;5.406;2023-07-29T06:18:09;3.58;;;1.67;;
71734;SDS011;59577;52.122;5.406;2023-07-29T06:20:36;2.03;;;1.50;;
71734;SDS011;59577;52.122;5.406;2023-07-29T06:23:03;3.67;;;1.50;;
71734;SDS011;59577;52.122;5.406;2023-07-29T06:25:29;3.17;;;1.37;;
71734;SDS011;59577;52.122;5.406;2023-07-29T06:27:56;3.10;;;1.30;;
71734;SDS011;59577;52.122;5.406;2023-07-29T06:30:25;3.38;;;1.85;;
71734;SDS011;59577;52.122;5.406;2023-07-29T06:32:52;2.45;;;1.45;;
71734;SDS011;59577;52.122;5.406;2023-07-29T06:35:18;5.18;;;1.65;;
71734;SDS011;59577;52.122;5.406;2023-07-29T06:37:45;2.50;;;1.60;;
71734;SDS011;59577;52.122;5.406;2023-07-29T06:40:11;2.95;;;1.50;;
71734;SDS011;59577;52.122;5.406;2023-07-29T06:42:38;5.72;;;1.60;;
71734;SDS011;59577;52.122;5.406;2023-07-29T06:45:05;2.72;;;1.60;;
71734;SDS011;59577;52.122;5.406;2023-07-29T06:47:32;3.65;;;2.40;;
71734;SDS011;59577;52.122;5.406;2023-07-29T06:49:58;2.50;;;1.77;;
71734;SDS011;59577;52.122;5.406;2023-07-29T06:52:25;3.65;;;1.95;;
71734;SDS011;59577;52.122;5.406;2023-07-29T06:54:51;4.93;;;2.20;;
71734;SDS011;59577;52.122;5.406;2023-07-29T06:57:18;2.28;;;1.77;;
71734;SDS011;59577;52.122;5.406;2023-07-29T06:59:45;5.70;;;2.03;;
71734;SDS011;59577;52.122;5.406;2023-07-29T07:02:11;4.23;;;2.60;;
71734;SDS011;59577;52.122;5.406;2023-07-29T07:04:38;5.18;;;2.67;;
71734;SDS011;59577;52.122;5.406;2023-07-29T07:07:04;4.45;;;1.95;;
71734;SDS011;59577;52.122;5.406;2023-07-29T07:09:31;4.85;;;2.60;;
71734;SDS011;59577;52.122;5.406;2023-07-29T07:11:58;4.38;;;2.53;;
71734;SDS011;59577;52.122;5.406;2023-07-29T07:14:24;2.67;;;2.00;;
71734;SDS011;59577;52.122;5.406;2023-07-29T07:16:51;5.32;;;2.53;;
71734;SDS011;59577;52.122;5.406;2023-07-29T07:19:18;2.83;;;2.25;;
71734;SDS011;59577;52.122;5.406;2023-07-29T07:21:44;4.57;;;2.20;;
71734;SDS011;59577;52.122;5.406;2023-07-29T07:24:11;3.80;;;2.08;;
71734;SDS011;59577;52.122;5.406;2023-07-29T07:26:38;3.23;;;1.63;;
71734;SDS011;59577;52.122;5.406;2023-07-29T07:29:05;2.95;;;1.73;;
71734;SDS011;59577;52.122;5.406;2023-07-29T07:31:34;1.90;;;1.70;;
71734;SDS011;59577;52.122;5.406;2023-07-29T07:34:02;7.50;;;2.25;;
71734;SDS011;59577;52.122;5.406;2023-07-29T07:36:29;4.95;;;2.28;;
71734;SDS011;59577;52.122;5.406;2023-07-29T07:38:56;3.10;;;2.23;;
71734;SDS011;59577;52.122;5.406;2023-07-29T07:41:23;5.15;;;3.10;;
71734;SDS011;59577;52.122;5.406;2023-07-29T07:43:51;2.45;;;2.13;;
71734;SDS011;59577;52.122;5.406;2023-07-29T07:46:17;2.92;;;2.50;;
71734;SDS011;59577;52.122;5.406;2023-07-29T07:48:44;2.67;;;2.20;;
71734;SDS011;59577;52.122;5.406;2023-07-29T07:51:11;3.83;;;2.70;;
71734;SDS011;59577;52.122;5.406;2023-07-29T07:53:39;4.38;;;2.08;;
71734;SDS011;59577;52.122;5.406;2023-07-29T07:56:06;5.03;;;2.38;;
71734;SDS011;59577;52.122;5.406;2023-07-29T07:58:33;3.38;;;2.22;;
71734;SDS011;59577;52.122;5.406;2023-07-29T08:01:01;2.30;;;2.10;;
71734;SDS011;59577;52.122;5.406;2023-07-29T08:03:32;3.50;;;2.07;;
71734;SDS011;59577;52.122;5.406;2023-07-29T08:05:59;2.97;;;2.58;;
71734;SDS011;59577;52.122;5.406;2023-07-29T08:08:26;3.75;;;2.00;;
71734;SDS011;59577;52.122;5.406;2023-07-29T08:10:54;3.30;;;1.60;;
71734;SDS011;59577;52.122;5.406;2023-07-29T08:13:22;2.78;;;1.60;;
71734;SDS011;59577;52.122;5.406;2023-07-29T08:15:50;2.07;;;1.43;;
71734;SDS011;59577;52.122;5.406;2023-07-29T08:18:17;3.70;;;1.90;;
71734;SDS011;59577;52.122;5.406;2023-07-29T08:20:54;5.35;;;1.95;;
71734;SDS011;59577;52.122;5.406;2023-07-29T08:23:24;3.95;;;1.52;;
71734;SDS011;59577;52.122;5.406;2023-07-29T08:25:52;3.03;;;1.33;;
71734;SDS011;59577;52.122;5.406;2023-07-29T08:28:20;2.47;;;1.20;;
71734;SDS011;59577;52.122;5.406;2023-07-29T08:30:47;1.38;;;1.00;;
71734;SDS011;59577;52.122;5.406;2023-07-29T08:33:14;1.85;;;1.30;;
71734;SDS011;59577;52.122;5.406;2023-07-29T08:35:41;1.63;;;1.10;;
71734;SDS011;59577;52.122;5.406;2023-07-29T08:38:08;3.05;;;1.30;;
71734;SDS011;59577;52.122;5.406;2023-07-29T08:40:34;1.50;;;1.10;;
71734;SDS011;59577;52.122;5.406;2023-07-29T08:43:04;3.95;;;1.48;;
71734;SDS011;59577;52.122;5.406;2023-07-29T08:45:35;2.28;;;1.20;;
71734;SDS011;59577;52.122;5.406;2023-07-29T08:48:07;1.55;;;1.25;;
71734;SDS011;59577;52.122;5.406;2023-07-29T08:50:36;3.63;;;1.30;;
71734;SDS011;59577;52.122;5.406;2023-07-29T08:53:04;3.30;;;1.23;;
71734;SDS011;59577;52.122;5.406;2023-07-29T08:55:34;2.47;;;1.00;;
71734;SDS011;59577;52.122;5.406;2023-07-29T08:58:00;2.50;;;1.10;;
71734;SDS011;59577;52.122;5.406;2023-07-29T09:00:30;2.67;;;1.10;;
71734;SDS011;59577;52.122;5.406;2023-07-29T09:02:58;2.47;;;1.23;;
71734;SDS011;59577;52.122;5.406;2023-07-29T09:05:29;2.00;;;1.07;;
71734;SDS011;59577;52.122;5.406;2023-07-29T09:07:55;3.15;;;1.00;;
71734;SDS011;59577;52.122;5.406;2023-07-29T09:10:22;3.22;;;1.00;;
71734;SDS011;59577;52.122;5.406;2023-07-29T09:12:52;3.90;;;1.30;;
71734;SDS011;59577;52.122;5.406;2023-07-29T09:15:28;2.63;;;1.35;;
71734;SDS011;59577;52.122;5.406;2023-07-29T09:17:56;2.97;;;1.27;;
71734;SDS011;59577;52.122;5.406;2023-07-29T09:20:28;2.83;;;1.50;;
71734;SDS011;59577;52.122;5.406;2023-07-29T09:22:56;2.28;;;1.30;;
71734;SDS011;59577;52.122;5.406;2023-07-29T09:25:28;2.78;;;1.58;;
71734;SDS011;59577;52.122;5.406;2023-07-29T09:27:59;1.73;;;1.63;;
71734;SDS011;59577;52.122;5.406;2023-07-29T09:30:27;2.03;;;1.07;;
71734;SDS011;59577;52.122;5.406;2023-07-29T09:32:57;2.30;;;1.30;;
71734;SDS011;59577;52.122;5.406;2023-07-29T09:35:27;2.75;;;1.30;;
71734;SDS011;59577;52.122;5.406;2023-07-29T09:37:54;2.92;;;1.33;;
71734;SDS011;59577;52.122;5.406;2023-07-29T09:40:20;3.47;;;1.27;;
71734;SDS011;59577;52.122;5.406;2023-07-29T09:42:48;6.97;;;1.70;;
71734;SDS011;59577;52.122;5.406;2023-07-29T09:45:19;2.13;;;1.50;;
71734;SDS011;59577;52.122;5.406;2023-07-29T09:47:47;1.98;;;1.40;;
71734;SDS011;59577;52.122;5.406;2023-07-29T09:50:14;2.25;;;1.60;;
71734;SDS011;59577;52.122;5.406;2023-07-29T09:52:41;4.43;;;1.40;;
71734;SDS011;59577;52.122;5.406;2023-07-29T09:55:10;3.57;;;1.50;;
71734;SDS011;59577;52.122;5.406;2023-07-29T09:57:39;5.03;;;1.92;;
71734;SDS011;59577;52.122;5.406;2023-07-29T10:00:07;2.15;;;1.77;;
71734;SDS011;59577;52.122;5.406;2023-07-29T10:02:42;5.85;;;1.80;;
71734;SDS011;59577;52.122;5.406;2023-07-29T10:05:09;5.68;;;2.00;;
71734;SDS011;59577;52.122;5.406;2023-07-29T10:07:37;2.87;;;1.90;;
71734;SDS011;59577;52.122;5.406;2023-07-29T10:10:05;4.13;;;2.10;;
71734;SDS011;59577;52.122;5.406;2023-07-29T10:12:34;5.05;;;2.38;;
71734;SDS011;59577;52.122;5.406;2023-07-29T10:15:06;3.45;;;2.55;;
71734;SDS011;59577;52.122;5.406;2023-07-29T10:17:34;4.68;;;2.78;;
71734;SDS011;59577;52.122;5.406;2023-07-29T10:20:05;3.80;;;2.70;;
71734;SDS011;59577;52.122;5.406;2023-07-29T10:22:34;3.83;;;2.85;;
71734;SDS011;59577;52.122;5.406;2023-07-29T10:25:10;4.40;;;2.25;;
71734;SDS011;59577;52.122;5.406;2023-07-29T10:27:49;5.03;;;2.47;;
71734;SDS011;59577;52.122;5.406;2023-07-29T10:30:19;2.55;;;2.20;;
71734;SDS011;59577;52.122;5.406;2023-07-29T10:32:46;3.83;;;2.87;;
71734;SDS011;59577;52.122;5.406;2023-07-29T10:35:13;4.57;;;2.85;;
71734;SDS011;59577;52.122;5.406;2023-07-29T10:37:41;3.35;;;2.67;;
71734;SDS011;59577;52.122;5.406;2023-07-29T10:40:09;3.15;;;2.95;;
71734;SDS011;59577;52.122;5.406;2023-07-29T10:42:37;2.47;;;2.28;;
71734;SDS011;59577;52.122;5.406;2023-07-29T10:45:26;4.57;;;2.80;;
71734;SDS011;59577;52.122;5.406;2023-07-29T10:47:51;2.92;;;2.60;;
71734;SDS011;59577;52.122;5.406;2023-07-29T10:50:20;2.70;;;2.50;;
71734;SDS011;59577;52.122;5.406;2023-07-29T10:52:49;3.63;;;2.75;;
71734;SDS011;59577;52.122;5.406;2023-07-29T10:55:39;3.10;;;2.80;;
71734;SDS011;59577;52.122;5.406;2023-07-29T10:58:14;2.60;;;2.27;;
71734;SDS011;59577;52.122;5.406;2023-07-29T11:00:44;3.50;;;2.22;;
71734;SDS011;59577;52.122;5.406;2023-07-29T11:03:12;2.58;;;2.38;;
71734;SDS011;59577;52.122;5.406;2023-07-29T11:05:47;2.90;;;1.60;;
71734;SDS011;59577;52.122;5.406;2023-07-29T11:08:28;1.48;;;1.38;;
71734;SDS011;59577;52.122;5.406;2023-07-29T11:13:31;1.10;;;1.00;;
71734;SDS011;59577;52.122;5.406;2023-07-29T11:15:59;1.10;;;0.90;;
71734;SDS011;59577;52.122;5.406;2023-07-29T11:18:28;1.20;;;0.80;;
71734;SDS011;59577;52.122;5.406;2023-07-29T11:20:56;1.75;;;0.70;;
71734;SDS011;59577;52.122;5.406;2023-07-29T11:23:30;1.43;;;0.63;;
71734;SDS011;59577;52.122;5.406;2023-07-29T11:25:58;1.25;;;0.70;;
71734;SDS011;59577;52.122;5.406;2023-07-29T11:28:26;1.55;;;0.50;;
71734;SDS011;59577;52.122;5.406;2023-07-29T11:30:55;0.98;;;0.50;;
71734;SDS011;59577;52.122;5.406;2023-07-29T11:33:26;1.63;;;0.70;;
71734;SDS011;59577;52.122;5.406;2023-07-29T11:35:55;1.07;;;0.50;;
71734;SDS011;59577;52.122;5.406;2023-07-29T11:38:22;0.80;;;0.45;;
71734;SDS011;59577;52.122;5.406;2023-07-29T11:40:55;1.70;;;0.40;;
71734;SDS011;59577;52.122;5.406;2023-07-29T11:43:26;0.63;;;0.43;;
71734;SDS011;59577;52.122;5.406;2023-07-29T11:45:53;0.60;;;0.40;;
71734;SDS011;59577;52.122;5.406;2023-07-29T11:48:27;0.70;;;0.30;;
71734;SDS011;59577;52.122;5.406;2023-07-29T11:50:54;0.73;;;0.40;;
71734;SDS011;59577;52.122;5.406;2023-07-29T11:53:21;1.17;;;0.40;;
71734;SDS011;59577;52.122;5.406;2023-07-29T11:55:51;1.50;;;0.50;;
71734;SDS011;59577;52.122;5.406;2023-07-29T11:58:20;0.90;;;0.55;;
71734;SDS011;59577;52.122;5.406;2023-07-29T12:00:47;3.43;;;0.50;;
71734;SDS011;59577;52.122;5.406;2023-07-29T12:03:15;2.88;;;0.70;;
71734;SDS011;59577;52.122;5.406;2023-07-29T12:05:44;1.15;;;0.63;;
71734;SDS011;59577;52.122;5.406;2023-07-29T12:08:11;1.35;;;0.65;;
71734;SDS011;59577;52.122;5.406;2023-07-29T12:10:38;1.60;;;0.70;;
71734;SDS011;59577;52.122;5.406;2023-07-29T12:13:05;0.67;;;0.50;;
71734;SDS011;59577;52.122;5.406;2023-07-29T12:15:34;1.30;;;0.75;;
71734;SDS011;59577;52.122;5.406;2023-07-29T12:18:01;1.42;;;0.60;;
71734;SDS011;59577;52.122;5.406;2023-07-29T12:20:28;1.27;;;0.60;;
71734;SDS011;59577;52.122;5.406;2023-07-29T12:22:56;1.25;;;0.80;;
71734;SDS011;59577;52.122;5.406;2023-07-29T12:25:25;1.37;;;0.70;;
71734;SDS011;59577;52.122;5.406;2023-07-29T12:27:52;1.38;;;0.80;;
71734;SDS011;59577;52.122;5.406;2023-07-29T12:30:20;44.75;;;12.80;;
71734;SDS011;59577;52.122;5.406;2023-07-29T12:32:47;14.45;;;5.45;;
71734;SDS011;59577;52.122;5.406;2023-07-29T12:35:14;2.88;;;1.83;;
71734;SDS011;59577;52.122;5.406;2023-07-29T12:37:41;10.67;;;2.97;;
71734;SDS011;59577;52.122;5.406;2023-07-29T12:40:20;3.08;;;0.80;;
71734;SDS011;59577;52.122;5.406;2023-07-29T12:42:50;1.70;;;0.90;;
71734;SDS011;59577;52.122;5.406;2023-07-29T12:45:18;3.22;;;1.00;;
71734;SDS011;59577;52.122;5.406;2023-07-29T12:47:45;1.08;;;0.65;;
71734;SDS011;59577;52.122;5.406;2023-07-29T12:50:11;4.70;;;0.70;;
71734;SDS011;59577;52.122;5.406;2023-07-29T12:52:38;2.22;;;0.80;;
71734;SDS011;59577;52.122;5.406;2023-07-29T12:55:05;0.98;;;0.50;;
71734;SDS011;59577;52.122;5.406;2023-07-29T12:57:35;1.00;;;0.60;;
71734;SDS011;59577;52.122;5.406;2023-07-29T13:00:02;1.20;;;0.70;;
71734;SDS011;59577;52.122;5.406;2023-07-29T13:02:30;1.10;;;0.83;;
71734;SDS011;59577;52.122;5.406;2023-07-29T13:04:56;1.73;;;1.00;;
71734;SDS011;59577;52.122;5.406;2023-07-29T13:07:23;1.13;;;0.73;;
71734;SDS011;59577;52.122;5.406;2023-07-29T13:09:50;1.30;;;0.57;;
71734;SDS011;59577;52.122;5.406;2023-07-29T13:12:16;7.07;;;0.77;;
71734;SDS011;59577;52.122;5.406;2023-07-29T13:14:43;0.73;;;0.60;;
71734;SDS011;59577;52.122;5.406;2023-07-29T13:17:10;1.15;;;0.70;;
71734;SDS011;59577;52.122;5.406;2023-07-29T13:19:36;0.60;;;0.40;;
71734;SDS011;59577;52.122;5.406;2023-07-29T13:22:03;2.47;;;0.80;;
71734;SDS011;59577;52.122;5.406;2023-07-29T13:24:30;1.45;;;0.70;;
71734;SDS011;59577;52.122;5.406;2023-07-29T13:26:56;1.40;;;0.57;;
71734;SDS011;59577;52.122;5.406;2023-07-29T13:29:23;1.70;;;0.50;;
71734;SDS011;59577;52.122;5.406;2023-07-29T13:31:50;0.32;;;0.32;;
71734;SDS011;59577;52.122;5.406;2023-07-29T13:34:16;1.00;;;0.50;;
71734;SDS011;59577;52.122;5.406;2023-07-29T13:36:43;0.68;;;0.40;;
71734;SDS011;59577;52.122;5.406;2023-07-29T13:39:09;2.33;;;0.80;;
71734;SDS011;59577;52.122;5.406;2023-07-29T13:41:36;1.52;;;0.60;;
71734;SDS011;59577;52.122;5.406;2023-07-29T13:44:02;0.88;;;0.47;;
71734;SDS011;59577;52.122;5.406;2023-07-29T13:46:29;0.90;;;0.60;;
71734;SDS011;59577;52.122;5.406;2023-07-29T13:48:56;1.02;;;0.47;;
71734;SDS011;59577;52.122;5.406;2023-07-29T13:51:22;0.90;;;0.50;;
71734;SDS011;59577;52.122;5.406;2023-07-29T13:53:49;1.30;;;0.50;;
71734;SDS011;59577;52.122;5.406;2023-07-29T13:56:16;1.50;;;0.60;;
71734;SDS011;59577;52.122;5.406;2023-07-29T13:58:43;0.98;;;0.60;;
71734;SDS011;59577;52.122;5.406;2023-07-29T14:01:09;0.95;;;0.50;;
71734;SDS011;59577;52.122;5.406;2023-07-29T14:03:36;0.90;;;0.60;;
71734;SDS011;59577;52.122;5.406;2023-07-29T14:06:02;2.63;;;0.65;;
71734;SDS011;59577;52.122;5.406;2023-07-29T14:08:29;1.27;;;0.85;;
71734;SDS011;59577;52.122;5.406;2023-07-29T14:10:56;1.38;;;0.60;;
71734;SDS011;59577;52.122;5.406;2023-07-29T14:13:23;1.58;;;0.70;;
71734;SDS011;59577;52.122;5.406;2023-07-29T14:15:49;1.40;;;0.70;;
71734;SDS011;59577;52.122;5.406;2023-07-29T14:18:16;0.80;;;0.60;;
71734;SDS011;59577;52.122;5.406;2023-07-29T14:20:42;1.15;;;0.60;;
71734;SDS011;59577;52.122;5.406;2023-07-29T14:23:09;2.65;;;0.60;;
71734;SDS011;59577;52.122;5.406;2023-07-29T14:25:36;1.05;;;0.50;;
71734;SDS011;59577;52.122;5.406;2023-07-29T14:28:02;1.27;;;0.57;;
71734;SDS011;59577;52.122;5.406;2023-07-29T14:30:29;2.00;;;0.73;;
71734;SDS011;59577;52.122;5.406;2023-07-29T14:32:56;0.95;;;0.60;;
71734;SDS011;59577;52.122;5.406;2023-07-29T14:35:23;2.13;;;0.50;;
71734;SDS011;59577;52.122;5.406;2023-07-29T14:37:50;1.48;;;0.70;;
71734;SDS011;59577;52.122;5.406;2023-07-29T14:40:16;1.70;;;0.60;;
71734;SDS011;59577;52.122;5.406;2023-07-29T14:42:43;0.98;;;0.57;;
71734;SDS011;59577;52.122;5.406;2023-07-29T14:45:10;2.40;;;0.73;;
71734;SDS011;59577;52.122;5.406;2023-07-29T14:47:36;2.33;;;0.60;;
71734;SDS011;59577;52.122;5.406;2023-07-29T14:50:03;1.92;;;0.80;;
71734;SDS011;59577;52.122;5.406;2023-07-29T14:52:34;2.23;;;0.80;;
71734;SDS011;59577;52.122;5.406;2023-07-29T14:55:00;2.08;;;0.60;;
71734;SDS011;59577;52.122;5.406;2023-07-29T14:57:27;1.48;;;0.50;;
71734;SDS011;59577;52.122;5.406;2023-07-29T14:59:53;0.60;;;0.40;;